sensor_id;sensor_type;location;lat;lon;timestamp;temperature;humidity
21216;DHT22;10765;50.954;5.322;2023-02-21T00:02:08;8.00;99.90
21216;DHT22;10765;50.954;5.322;2023-02-21T00:04:54;8.00;99.90
21216;DHT22;10765;50.954;5.322;2023-02-21T00:07:38;7.90;99.90
21216;DHT22;10765;50.954;5.322;2023-02-21T00:10:23;7.80;11.80
21216;DHT22;10765;50.954;5.322;2023-02-21T00:13:07;7.90;99.90
21216;DHT22;10765;50.954;5.322;2023-02-21T00:15:51;7.90;1.00
21216;DHT22;10765;50.954;5.322;2023-02-21T00:18:36;7.90;99.90
21216;DHT22;10765;50.954;5.322;2023-02-21T00:21:23;7.90;14.70
21216;DHT22;10765;50.954;5.322;2023-02-21T00:24:07;7.90;1.00
21216;DHT22;10765;50.954;5.322;2023-02-21T00:26:55;7.80;1.00
21216;DHT22;10765;50.954;5.322;2023-02-21T00:29:39;7.70;99.90
21216;DHT22;10765;50.954;5.322;2023-02-21T00:32:23;7.60;1.00
21216;DHT22;10765;50.954;5.322;2023-02-21T00:35:07;7.60;1.00
21216;DHT22;10765;50.954;5.322;2023-02-21T00:37:53;7.70;89.90
21216;DHT22;10765;50.954;5.322;2023-02-21T00:40:37;7.60;1.00
21216;DHT22;10765;50.954;5.322;2023-02-21T00:43:27;7.60;1.00
21216;DHT22;10765;50.954;5.322;2023-02-21T00:46:12;7.50;99.90
21216;DHT22;10765;50.954;5.322;2023-02-21T00:48:56;7.50;99.90
21216;DHT22;10765;50.954;5.322;2023-02-21T00:51:40;7.50;1.00
21216;DHT22;10765;50.954;5.322;2023-02-21T00:54:25;7.40;1.00
21216;DHT22;10765;50.954;5.322;2023-02-21T00:57:10;7.50;1.00
21216;DHT22;10765;50.954;5.322;2023-02-21T00:59:54;7.50;1.00
21216;DHT22;10765;50.954;5.322;2023-02-21T01:02:38;7.50;1.00
21216;DHT22;10765;50.954;5.322;2023-02-21T01:05:22;7.60;1.00
21216;DHT22;10765;50.954;5.322;2023-02-21T01:08:06;7.60;99.90
21216;DHT22;10765;50.954;5.322;2023-02-21T01:10:52;7.60;99.90
21216;DHT22;10765;50.954;5.322;2023-02-21T01:13:36;7.70;1.00
21216;DHT22;10765;50.954;5.322;2023-02-21T01:16:21;7.70;99.90
21216;DHT22;10765;50.954;5.322;2023-02-21T01:19:05;7.70;99.90
21216;DHT22;10765;50.954;5.322;2023-02-21T01:21:50;7.70;99.90
21216;DHT22;10765;50.954;5.322;2023-02-21T01:24:34;7.70;99.90
21216;DHT22;10765;50.954;5.322;2023-02-21T01:27:20;7.60;99.90
21216;DHT22;10765;50.954;5.322;2023-02-21T01:30:05;7.50;1.00
21216;DHT22;10765;50.954;5.322;2023-02-21T01:32:49;7.50;99.90
21216;DHT22;10765;50.954;5.322;2023-02-21T01:35:33;7.50;99.90
21216;DHT22;10765;50.954;5.322;2023-02-21T01:38:18;7.50;1.00
21216;DHT22;10765;50.954;5.322;2023-02-21T01:41:02;7.40;1.00
21216;DHT22;10765;50.954;5.322;2023-02-21T01:43:59;7.40;1.00
21216;DHT22;10765;50.954;5.322;2023-02-21T01:46:43;7.50;1.00
21216;DHT22;10765;50.954;5.322;2023-02-21T01:49:28;7.50;1.00
21216;DHT22;10765;50.954;5.322;2023-02-21T01:52:13;7.40;1.00
21216;DHT22;10765;50.954;5.322;2023-02-21T01:54:57;7.40;1.00
21216;DHT22;10765;50.954;5.322;2023-02-21T01:57:43;7.50;1.00
21216;DHT22;10765;50.954;5.322;2023-02-21T02:00:30;7.50;99.90
21216;DHT22;10765;50.954;5.322;2023-02-21T02:03:17;7.50;99.90
21216;DHT22;10765;50.954;5.322;2023-02-21T02:06:04;7.50;1.00
21216;DHT22;10765;50.954;5.322;2023-02-21T02:08:50;7.50;1.00
21216;DHT22;10765;50.954;5.322;2023-02-21T02:11:51;7.50;1.00
21216;DHT22;10765;50.954;5.322;2023-02-21T02:15:02;7.70;1.00
21216;DHT22;10765;50.954;5.322;2023-02-21T02:17:39;7.70;1.00
21216;DHT22;10765;50.954;5.322;2023-02-21T02:20:51;7.60;1.00
21216;DHT22;10765;50.954;5.322;2023-02-21T02:23:45;7.50;1.00
21216;DHT22;10765;50.954;5.322;2023-02-21T02:32:36;7.60;1.00
21216;DHT22;10765;50.954;5.322;2023-02-21T02:35:07;7.60;99.90
21216;DHT22;10765;50.954;5.322;2023-02-21T02:37:41;7.50;99.90
21216;DHT22;10765;50.954;5.322;2023-02-21T02:40:18;7.60;99.90
21216;DHT22;10765;50.954;5.322;2023-02-21T02:42:52;7.60;1.00
21216;DHT22;10765;50.954;5.322;2023-02-21T02:45:25;7.50;99.90
21216;DHT22;10765;50.954;5.322;2023-02-21T02:48:00;7.50;1.00
21216;DHT22;10765;50.954;5.322;2023-02-21T02:50:31;7.50;99.90
21216;DHT22;10765;50.954;5.322;2023-02-21T02:53:01;7.40;96.90
21216;DHT22;10765;50.954;5.322;2023-02-21T02:55:37;7.30;1.00
21216;DHT22;10765;50.954;5.322;2023-02-21T02:58:05;7.40;1.00
21216;DHT22;10765;50.954;5.322;2023-02-21T03:00:36;7.30;1.00
21216;DHT22;10765;50.954;5.322;2023-02-21T03:03:14;7.30;1.00
21216;DHT22;10765;50.954;5.322;2023-02-21T03:05:55;7.30;21.90
21216;DHT22;10765;50.954;5.322;2023-02-21T03:08:28;7.30;66.50
21216;DHT22;10765;50.954;5.322;2023-02-21T03:11:05;7.40;99.90
21216;DHT22;10765;50.954;5.322;2023-02-21T03:13:40;7.50;99.90
21216;DHT22;10765;50.954;5.322;2023-02-21T03:16:15;7.50;99.90
21216;DHT22;10765;50.954;5.322;2023-02-21T03:18:47;7.50;41.60
21216;DHT22;10765;50.954;5.322;2023-02-21T03:21:20;7.40;1.00
21216;DHT22;10765;50.954;5.322;2023-02-21T03:23:52;7.40;1.00
21216;DHT22;10765;50.954;5.322;2023-02-21T03:26:19;7.20;1.00
21216;DHT22;10765;50.954;5.322;2023-02-21T03:28:47;7.10;78.70
21216;DHT22;10765;50.954;5.322;2023-02-21T03:31:17;7.10;99.90
21216;DHT22;10765;50.954;5.322;2023-02-21T03:33:45;7.20;99.90
21216;DHT22;10765;50.954;5.322;2023-02-21T03:36:13;7.10;99.90
21216;DHT22;10765;50.954;5.322;2023-02-21T03:38:41;7.10;99.90
21216;DHT22;10765;50.954;5.322;2023-02-21T03:41:10;7.20;99.90
21216;DHT22;10765;50.954;5.322;2023-02-21T03:43:37;7.10;99.90
21216;DHT22;10765;50.954;5.322;2023-02-21T03:46:04;7.00;99.90
21216;DHT22;10765;50.954;5.322;2023-02-21T03:48:31;7.10;99.90
21216;DHT22;10765;50.954;5.322;2023-02-21T03:50:58;7.10;99.90
21216;DHT22;10765;50.954;5.322;2023-02-21T03:53:25;7.00;99.90
21216;DHT22;10765;50.954;5.322;2023-02-21T03:55:53;7.10;99.90
21216;DHT22;10765;50.954;5.322;2023-02-21T03:58:20;7.20;99.90
21216;DHT22;10765;50.954;5.322;2023-02-21T04:00:48;7.10;99.90
21216;DHT22;10765;50.954;5.322;2023-02-21T04:03:16;7.20;99.90
21216;DHT22;10765;50.954;5.322;2023-02-21T04:05:43;7.20;99.90
21216;DHT22;10765;50.954;5.322;2023-02-21T04:08:10;7.10;99.90
21216;DHT22;10765;50.954;5.322;2023-02-21T04:10:37;7.20;99.90
21216;DHT22;10765;50.954;5.322;2023-02-21T04:13:06;7.20;99.90
21216;DHT22;10765;50.954;5.322;2023-02-21T04:15:33;7.20;99.90
21216;DHT22;10765;50.954;5.322;2023-02-21T04:18:00;7.20;99.90
21216;DHT22;10765;50.954;5.322;2023-02-21T04:20:27;7.30;99.90
21216;DHT22;10765;50.954;5.322;2023-02-21T04:22:54;7.30;99.90
21216;DHT22;10765;50.954;5.322;2023-02-21T04:25:23;7.20;99.90
21216;DHT22;10765;50.954;5.322;2023-02-21T04:27:50;7.20;99.90
21216;DHT22;10765;50.954;5.322;2023-02-21T04:30:19;7.20;99.90
21216;DHT22;10765;50.954;5.322;2023-02-21T04:32:46;7.30;99.90
21216;DHT22;10765;50.954;5.322;2023-02-21T04:35:13;7.20;99.90
21216;DHT22;10765;50.954;5.322;2023-02-21T04:37:40;7.20;99.90
21216;DHT22;10765;50.954;5.322;2023-02-21T04:40:08;7.10;99.90
21216;DHT22;10765;50.954;5.322;2023-02-21T04:42:35;7.10;99.90
21216;DHT22;10765;50.954;5.322;2023-02-21T04:45:02;7.10;99.90
21216;DHT22;10765;50.954;5.322;2023-02-21T04:47:30;7.10;99.90
21216;DHT22;10765;50.954;5.322;2023-02-21T04:50:00;7.00;99.90
21216;DHT22;10765;50.954;5.322;2023-02-21T04:52:27;6.90;99.90
21216;DHT22;10765;50.954;5.322;2023-02-21T04:54:54;6.90;99.90
21216;DHT22;10765;50.954;5.322;2023-02-21T04:57:21;6.90;99.90
21216;DHT22;10765;50.954;5.322;2023-02-21T04:59:48;7.00;99.90
21216;DHT22;10765;50.954;5.322;2023-02-21T05:02:15;7.00;99.90
21216;DHT22;10765;50.954;5.322;2023-02-21T05:04:43;7.00;99.90
21216;DHT22;10765;50.954;5.322;2023-02-21T05:07:10;7.00;99.90
21216;DHT22;10765;50.954;5.322;2023-02-21T05:09:37;7.10;99.90
21216;DHT22;10765;50.954;5.322;2023-02-21T05:12:04;7.00;99.90
21216;DHT22;10765;50.954;5.322;2023-02-21T05:14:36;6.90;99.90
21216;DHT22;10765;50.954;5.322;2023-02-21T05:17:03;7.10;99.90
21216;DHT22;10765;50.954;5.322;2023-02-21T05:19:30;7.10;99.90
21216;DHT22;10765;50.954;5.322;2023-02-21T05:22:00;7.20;99.90
21216;DHT22;10765;50.954;5.322;2023-02-21T05:24:29;7.10;99.90
21216;DHT22;10765;50.954;5.322;2023-02-21T05:26:56;7.10;99.90
21216;DHT22;10765;50.954;5.322;2023-02-21T05:29:23;7.00;99.90
21216;DHT22;10765;50.954;5.322;2023-02-21T05:31:50;6.90;99.90
21216;DHT22;10765;50.954;5.322;2023-02-21T05:34:17;6.80;99.90
21216;DHT22;10765;50.954;5.322;2023-02-21T05:36:44;6.90;99.90
21216;DHT22;10765;50.954;5.322;2023-02-21T05:39:13;6.90;99.90
21216;DHT22;10765;50.954;5.322;2023-02-21T05:41:45;7.00;99.90
21216;DHT22;10765;50.954;5.322;2023-02-21T05:44:12;7.10;99.90
21216;DHT22;10765;50.954;5.322;2023-02-21T05:46:39;7.20;99.90
21216;DHT22;10765;50.954;5.322;2023-02-21T05:49:06;7.20;99.90
21216;DHT22;10765;50.954;5.322;2023-02-21T05:51:35;7.20;99.90
21216;DHT22;10765;50.954;5.322;2023-02-21T05:54:03;7.20;99.90
21216;DHT22;10765;50.954;5.322;2023-02-21T05:56:37;7.20;99.90
21216;DHT22;10765;50.954;5.322;2023-02-21T05:59:04;7.10;99.90
21216;DHT22;10765;50.954;5.322;2023-02-21T06:01:31;7.10;99.90
21216;DHT22;10765;50.954;5.322;2023-02-21T06:03:58;7.20;99.90
21216;DHT22;10765;50.954;5.322;2023-02-21T06:06:25;7.20;99.90
21216;DHT22;10765;50.954;5.322;2023-02-21T06:08:52;7.30;99.90
21216;DHT22;10765;50.954;5.322;2023-02-21T06:11:23;7.20;99.90
21216;DHT22;10765;50.954;5.322;2023-02-21T06:13:53;7.10;99.90
21216;DHT22;10765;50.954;5.322;2023-02-21T06:16:21;7.30;99.90
21216;DHT22;10765;50.954;5.322;2023-02-21T06:18:49;7.20;99.90
21216;DHT22;10765;50.954;5.322;2023-02-21T06:21:16;7.10;99.90
21216;DHT22;10765;50.954;5.322;2023-02-21T06:23:44;7.20;99.90
21216;DHT22;10765;50.954;5.322;2023-02-21T06:26:11;7.20;99.90
21216;DHT22;10765;50.954;5.322;2023-02-21T06:28:37;7.10;99.90
21216;DHT22;10765;50.954;5.322;2023-02-21T06:31:06;7.00;99.90
21216;DHT22;10765;50.954;5.322;2023-02-21T06:33:33;7.00;99.90
21216;DHT22;10765;50.954;5.322;2023-02-21T06:36:03;6.90;99.90
21216;DHT22;10765;50.954;5.322;2023-02-21T06:38:31;6.90;99.90
21216;DHT22;10765;50.954;5.322;2023-02-21T06:40:58;7.10;99.90
21216;DHT22;10765;50.954;5.322;2023-02-21T06:43:25;6.90;99.90
21216;DHT22;10765;50.954;5.322;2023-02-21T06:45:52;6.90;99.90
21216;DHT22;10765;50.954;5.322;2023-02-21T06:48:21;6.90;99.90
21216;DHT22;10765;50.954;5.322;2023-02-21T06:50:51;6.90;99.90
21216;DHT22;10765;50.954;5.322;2023-02-21T06:53:18;6.90;99.90
21216;DHT22;10765;50.954;5.322;2023-02-21T06:55:44;6.90;99.90
21216;DHT22;10765;50.954;5.322;2023-02-21T06:58:11;6.90;99.90
21216;DHT22;10765;50.954;5.322;2023-02-21T07:00:38;7.00;99.90
21216;DHT22;10765;50.954;5.322;2023-02-21T07:03:06;6.90;99.90
21216;DHT22;10765;50.954;5.322;2023-02-21T07:05:34;6.90;99.90
21216;DHT22;10765;50.954;5.322;2023-02-21T07:08:03;6.80;99.90
21216;DHT22;10765;50.954;5.322;2023-02-21T07:10:30;6.80;99.90
21216;DHT22;10765;50.954;5.322;2023-02-21T07:12:57;6.90;99.90
21216;DHT22;10765;50.954;5.322;2023-02-21T07:15:24;6.90;99.90
21216;DHT22;10765;50.954;5.322;2023-02-21T07:17:51;7.00;99.90
21216;DHT22;10765;50.954;5.322;2023-02-21T07:20:18;7.00;99.90
21216;DHT22;10765;50.954;5.322;2023-02-21T07:22:46;7.00;99.90
21216;DHT22;10765;50.954;5.322;2023-02-21T07:25:15;7.10;99.90
21216;DHT22;10765;50.954;5.322;2023-02-21T07:27:42;7.20;99.90
21216;DHT22;10765;50.954;5.322;2023-02-21T07:30:10;7.30;99.90
21216;DHT22;10765;50.954;5.322;2023-02-21T07:32:37;7.30;99.90
21216;DHT22;10765;50.954;5.322;2023-02-21T07:35:05;7.30;99.90
21216;DHT22;10765;50.954;5.322;2023-02-21T07:37:32;7.50;99.90
21216;DHT22;10765;50.954;5.322;2023-02-21T07:40:00;7.30;99.90
21216;DHT22;10765;50.954;5.322;2023-02-21T07:42:28;7.20;99.90
21216;DHT22;10765;50.954;5.322;2023-02-21T07:44:55;7.20;99.90
21216;DHT22;10765;50.954;5.322;2023-02-21T07:47:23;7.20;99.90
21216;DHT22;10765;50.954;5.322;2023-02-21T07:49:50;7.30;99.90
21216;DHT22;10765;50.954;5.322;2023-02-21T07:52:18;7.30;99.90
21216;DHT22;10765;50.954;5.322;2023-02-21T07:54:45;7.20;99.90
21216;DHT22;10765;50.954;5.322;2023-02-21T07:57:14;7.10;99.90
21216;DHT22;10765;50.954;5.322;2023-02-21T07:59:42;7.10;99.90
21216;DHT22;10765;50.954;5.322;2023-02-21T08:02:10;7.10;99.90
21216;DHT22;10765;50.954;5.322;2023-02-21T08:04:37;7.00;99.90
21216;DHT22;10765;50.954;5.322;2023-02-21T08:07:04;7.10;99.90
21216;DHT22;10765;50.954;5.322;2023-02-21T08:09:31;7.00;99.90
21216;DHT22;10765;50.954;5.322;2023-02-21T08:11:58;7.10;99.90
21216;DHT22;10765;50.954;5.322;2023-02-21T08:14:27;7.10;99.90
21216;DHT22;10765;50.954;5.322;2023-02-21T08:16:53;7.20;99.90
21216;DHT22;10765;50.954;5.322;2023-02-21T08:19:20;7.30;99.90
21216;DHT22;10765;50.954;5.322;2023-02-21T08:21:48;7.40;99.90
21216;DHT22;10765;50.954;5.322;2023-02-21T08:24:16;7.50;99.90
21216;DHT22;10765;50.954;5.322;2023-02-21T08:26:43;7.60;99.90
21216;DHT22;10765;50.954;5.322;2023-02-21T08:29:11;7.50;99.90
21216;DHT22;10765;50.954;5.322;2023-02-21T08:31:40;7.60;99.90
21216;DHT22;10765;50.954;5.322;2023-02-21T08:34:09;7.50;99.90
21216;DHT22;10765;50.954;5.322;2023-02-21T08:36:37;7.50;99.90
21216;DHT22;10765;50.954;5.322;2023-02-21T08:39:06;7.30;99.90
21216;DHT22;10765;50.954;5.322;2023-02-21T08:41:36;7.40;99.90
21216;DHT22;10765;50.954;5.322;2023-02-21T08:44:03;7.60;99.90
21216;DHT22;10765;50.954;5.322;2023-02-21T08:46:31;7.70;99.90
21216;DHT22;10765;50.954;5.322;2023-02-21T08:48:59;7.80;99.90
21216;DHT22;10765;50.954;5.322;2023-02-21T08:51:27;8.00;99.90
21216;DHT22;10765;50.954;5.322;2023-02-21T08:53:54;8.00;99.90
21216;DHT22;10765;50.954;5.322;2023-02-21T08:56:22;7.90;99.90
21216;DHT22;10765;50.954;5.322;2023-02-21T08:58:51;7.80;99.90
21216;DHT22;10765;50.954;5.322;2023-02-21T09:01:20;7.90;99.90
21216;DHT22;10765;50.954;5.322;2023-02-21T09:03:47;7.90;99.90
21216;DHT22;10765;50.954;5.322;2023-02-21T09:06:16;8.00;99.90
21216;DHT22;10765;50.954;5.322;2023-02-21T09:08:43;8.00;99.90
21216;DHT22;10765;50.954;5.322;2023-02-21T09:11:10;8.10;99.90
21216;DHT22;10765;50.954;5.322;2023-02-21T09:13:37;8.10;99.90
21216;DHT22;10765;50.954;5.322;2023-02-21T09:16:04;8.20;99.90
21216;DHT22;10765;50.954;5.322;2023-02-21T09:18:32;8.20;99.90
21216;DHT22;10765;50.954;5.322;2023-02-21T09:20:59;8.20;99.90
21216;DHT22;10765;50.954;5.322;2023-02-21T09:23:29;8.20;99.90
21216;DHT22;10765;50.954;5.322;2023-02-21T09:25:56;8.30;99.90
21216;DHT22;10765;50.954;5.322;2023-02-21T09:28:23;8.40;99.90
21216;DHT22;10765;50.954;5.322;2023-02-21T09:30:54;8.30;99.90
21216;DHT22;10765;50.954;5.322;2023-02-21T09:33:20;8.30;99.90
21216;DHT22;10765;50.954;5.322;2023-02-21T09:35:47;8.30;99.90
21216;DHT22;10765;50.954;5.322;2023-02-21T09:38:15;8.30;99.90
21216;DHT22;10765;50.954;5.322;2023-02-21T09:40:47;8.10;99.90
21216;DHT22;10765;50.954;5.322;2023-02-21T09:43:18;8.20;99.90
21216;DHT22;10765;50.954;5.322;2023-02-21T09:45:46;8.30;99.90
21216;DHT22;10765;50.954;5.322;2023-02-21T09:48:17;8.40;99.90
21216;DHT22;10765;50.954;5.322;2023-02-21T09:50:47;8.50;99.90
21216;DHT22;10765;50.954;5.322;2023-02-21T09:53:19;8.60;99.90
21216;DHT22;10765;50.954;5.322;2023-02-21T09:55:52;8.60;99.90
21216;DHT22;10765;50.954;5.322;2023-02-21T09:58:20;8.70;99.90
21216;DHT22;10765;50.954;5.322;2023-02-21T10:00:47;8.70;99.90
21216;DHT22;10765;50.954;5.322;2023-02-21T10:03:30;8.60;99.90
21216;DHT22;10765;50.954;5.322;2023-02-21T10:06:05;8.40;99.90
21216;DHT22;10765;50.954;5.322;2023-02-21T10:08:39;8.50;99.90
21216;DHT22;10765;50.954;5.322;2023-02-21T10:11:24;8.70;99.90
21216;DHT22;10765;50.954;5.322;2023-02-21T10:13:57;8.80;99.90
21216;DHT22;10765;50.954;5.322;2023-02-21T10:16:28;8.70;99.90
21216;DHT22;10765;50.954;5.322;2023-02-21T10:19:03;8.70;99.90
21216;DHT22;10765;50.954;5.322;2023-02-21T10:21:36;8.60;99.90
21216;DHT22;10765;50.954;5.322;2023-02-21T10:24:10;8.70;99.90
21216;DHT22;10765;50.954;5.322;2023-02-21T10:26:41;8.90;99.90
21216;DHT22;10765;50.954;5.322;2023-02-21T10:29:19;9.00;99.90
21216;DHT22;10765;50.954;5.322;2023-02-21T10:31:47;9.10;99.90
21216;DHT22;10765;50.954;5.322;2023-02-21T10:34:22;9.20;99.90
21216;DHT22;10765;50.954;5.322;2023-02-21T10:36:49;9.40;99.90
21216;DHT22;10765;50.954;5.322;2023-02-21T10:39:18;9.30;99.90
21216;DHT22;10765;50.954;5.322;2023-02-21T10:41:49;9.30;99.90
21216;DHT22;10765;50.954;5.322;2023-02-21T10:44:20;9.30;59.70
21216;DHT22;10765;50.954;5.322;2023-02-21T10:46:54;9.10;1.00
21216;DHT22;10765;50.954;5.322;2023-02-21T10:49:28;8.90;1.00
21216;DHT22;10765;50.954;5.322;2023-02-21T10:52:07;8.90;2.50
21216;DHT22;10765;50.954;5.322;2023-02-21T10:54:34;8.90;18.60
21216;DHT22;10765;50.954;5.322;2023-02-21T10:57:06;8.90;99.90
21216;DHT22;10765;50.954;5.322;2023-02-21T10:59:35;9.00;1.00
21216;DHT22;10765;50.954;5.322;2023-02-21T11:02:29;9.20;99.90
21216;DHT22;10765;50.954;5.322;2023-02-21T11:05:07;9.40;99.90
21216;DHT22;10765;50.954;5.322;2023-02-21T11:07:35;9.70;1.00
21216;DHT22;10765;50.954;5.322;2023-02-21T11:13:01;9.50;99.90
21216;DHT22;10765;50.954;5.322;2023-02-21T11:15:28;9.30;99.90
21216;DHT22;10765;50.954;5.322;2023-02-21T11:18:04;9.30;1.00
21216;DHT22;10765;50.954;5.322;2023-02-21T11:20:31;9.50;99.90
21216;DHT22;10765;50.954;5.322;2023-02-21T11:22:58;9.40;1.00
21216;DHT22;10765;50.954;5.322;2023-02-21T11:25:27;9.40;99.90
21216;DHT22;10765;50.954;5.322;2023-02-21T11:28:04;9.70;1.00
21216;DHT22;10765;50.954;5.322;2023-02-21T11:30:33;9.50;99.90
21216;DHT22;10765;50.954;5.322;2023-02-21T11:33:02;9.40;1.00
21216;DHT22;10765;50.954;5.322;2023-02-21T11:35:32;9.40;1.00
21216;DHT22;10765;50.954;5.322;2023-02-21T11:38:02;9.40;99.90
21216;DHT22;10765;50.954;5.322;2023-02-21T11:40:32;9.30;99.90
21216;DHT22;10765;50.954;5.322;2023-02-21T11:43:20;9.40;99.90
21216;DHT22;10765;50.954;5.322;2023-02-21T11:46:04;9.30;1.00
21216;DHT22;10765;50.954;5.322;2023-02-21T11:48:38;9.30;1.00
21216;DHT22;10765;50.954;5.322;2023-02-21T11:51:17;9.30;99.90
21216;DHT22;10765;50.954;5.322;2023-02-21T11:53:48;9.10;1.00
21216;DHT22;10765;50.954;5.322;2023-02-21T11:56:25;9.00;1.00
21216;DHT22;10765;50.954;5.322;2023-02-21T11:59:02;9.20;99.90
21216;DHT22;10765;50.954;5.322;2023-02-21T12:01:39;9.30;1.00
21216;DHT22;10765;50.954;5.322;2023-02-21T12:04:29;9.40;99.90
21216;DHT22;10765;50.954;5.322;2023-02-21T12:07:06;9.30;99.90
21216;DHT22;10765;50.954;5.322;2023-02-21T12:09:42;9.30;1.00
21216;DHT22;10765;50.954;5.322;2023-02-21T12:12:25;9.20;99.90
21216;DHT22;10765;50.954;5.322;2023-02-21T12:15:02;9.30;47.10
21216;DHT22;10765;50.954;5.322;2023-02-21T12:18:05;9.50;1.00
21216;DHT22;10765;50.954;5.322;2023-02-21T12:20:54;9.60;1.00
21216;DHT22;10765;50.954;5.322;2023-02-21T12:23:28;9.50;99.90
21216;DHT22;10765;50.954;5.322;2023-02-21T12:26:10;9.20;1.00
21216;DHT22;10765;50.954;5.322;2023-02-21T12:28:52;9.00;1.00
21216;DHT22;10765;50.954;5.322;2023-02-21T12:31:42;9.10;1.00
21216;DHT22;10765;50.954;5.322;2023-02-21T12:34:25;9.00;1.00
21216;DHT22;10765;50.954;5.322;2023-02-21T12:37:15;9.10;1.00
21216;DHT22;10765;50.954;5.322;2023-02-21T12:39:57;9.10;1.00
21216;DHT22;10765;50.954;5.322;2023-02-21T12:42:41;8.90;99.90
21216;DHT22;10765;50.954;5.322;2023-02-21T12:45:36;8.90;1.00
21216;DHT22;10765;50.954;5.322;2023-02-21T12:48:11;9.00;1.00
21216;DHT22;10765;50.954;5.322;2023-02-21T12:50:42;9.10;99.90
21216;DHT22;10765;50.954;5.322;2023-02-21T12:53:13;9.20;99.90
21216;DHT22;10765;50.954;5.322;2023-02-21T12:55:45;9.30;1.00
21216;DHT22;10765;50.954;5.322;2023-02-21T12:58:17;9.40;99.90
21216;DHT22;10765;50.954;5.322;2023-02-21T13:00:50;9.40;99.90
21216;DHT22;10765;50.954;5.322;2023-02-21T13:03:31;9.30;99.90
21216;DHT22;10765;50.954;5.322;2023-02-21T13:06:05;9.40;99.90
21216;DHT22;10765;50.954;5.322;2023-02-21T13:08:38;9.50;1.00
21216;DHT22;10765;50.954;5.322;2023-02-21T13:11:09;9.50;99.90
21216;DHT22;10765;50.954;5.322;2023-02-21T13:13:38;9.40;1.00
21216;DHT22;10765;50.954;5.322;2023-02-21T13:16:07;9.40;1.00
21216;DHT22;10765;50.954;5.322;2023-02-21T13:18:41;9.50;1.00
21216;DHT22;10765;50.954;5.322;2023-02-21T13:21:18;9.20;99.90
21216;DHT22;10765;50.954;5.322;2023-02-21T13:24:10;9.20;13.40
21216;DHT22;10765;50.954;5.322;2023-02-21T13:29:40;8.80;1.00
21216;DHT22;10765;50.954;5.322;2023-02-21T13:32:10;9.10;1.00
21216;DHT22;10765;50.954;5.322;2023-02-21T13:34:40;9.20;1.00
21216;DHT22;10765;50.954;5.322;2023-02-21T13:37:15;9.30;99.90
21216;DHT22;10765;50.954;5.322;2023-02-21T13:39:45;9.30;62.50
21216;DHT22;10765;50.954;5.322;2023-02-21T13:42:17;9.30;1.00
21216;DHT22;10765;50.954;5.322;2023-02-21T13:44:47;9.40;99.90
21216;DHT22;10765;50.954;5.322;2023-02-21T13:47:17;9.40;1.00
21216;DHT22;10765;50.954;5.322;2023-02-21T13:49:52;9.30;99.90
21216;DHT22;10765;50.954;5.322;2023-02-21T13:52:49;9.20;1.00
21216;DHT22;10765;50.954;5.322;2023-02-21T13:55:28;8.90;99.90
21216;DHT22;10765;50.954;5.322;2023-02-21T13:58:22;9.00;1.00
21216;DHT22;10765;50.954;5.322;2023-02-21T14:00:51;9.20;1.00
21216;DHT22;10765;50.954;5.322;2023-02-21T14:03:30;9.20;1.00
21216;DHT22;10765;50.954;5.322;2023-02-21T14:06:30;9.20;1.00
21216;DHT22;10765;50.954;5.322;2023-02-21T14:09:09;9.20;1.00
21216;DHT22;10765;50.954;5.322;2023-02-21T14:11:41;9.20;1.00
21216;DHT22;10765;50.954;5.322;2023-02-21T14:14:20;9.30;99.90
21216;DHT22;10765;50.954;5.322;2023-02-21T14:16:52;9.40;99.90
21216;DHT22;10765;50.954;5.322;2023-02-21T14:19:22;9.40;1.00
21216;DHT22;10765;50.954;5.322;2023-02-21T14:21:58;9.10;1.00
21216;DHT22;10765;50.954;5.322;2023-02-21T14:24:29;9.10;99.90
21216;DHT22;10765;50.954;5.322;2023-02-21T14:27:02;9.50;99.90
21216;DHT22;10765;50.954;5.322;2023-02-21T14:29:37;9.60;1.00
21216;DHT22;10765;50.954;5.322;2023-02-21T14:32:30;9.70;99.90
21216;DHT22;10765;50.954;5.322;2023-02-21T14:34:58;9.80;99.90
21216;DHT22;10765;50.954;5.322;2023-02-21T14:37:32;10.00;99.90
21216;DHT22;10765;50.954;5.322;2023-02-21T14:40:01;9.60;1.00
21216;DHT22;10765;50.954;5.322;2023-02-21T14:42:48;9.50;99.90
21216;DHT22;10765;50.954;5.322;2023-02-21T14:48:43;9.20;1.00
21216;DHT22;10765;50.954;5.322;2023-02-21T14:51:48;9.40;1.00
21216;DHT22;10765;50.954;5.322;2023-02-21T14:54:50;9.50;1.00
21216;DHT22;10765;50.954;5.322;2023-02-21T14:57:45;9.60;1.00
21216;DHT22;10765;50.954;5.322;2023-02-21T15:00:22;9.70;99.90
21216;DHT22;10765;50.954;5.322;2023-02-21T15:02:55;9.60;23.20
21216;DHT22;10765;50.954;5.322;2023-02-21T15:05:29;9.60;99.90
21216;DHT22;10765;50.954;5.322;2023-02-21T15:08:04;9.60;99.90
21216;DHT22;10765;50.954;5.322;2023-02-21T15:10:39;9.50;99.90
21216;DHT22;10765;50.954;5.322;2023-02-21T15:13:20;9.60;99.90
21216;DHT22;10765;50.954;5.322;2023-02-21T15:15:47;9.70;99.90
21216;DHT22;10765;50.954;5.322;2023-02-21T15:18:23;9.90;99.90
21216;DHT22;10765;50.954;5.322;2023-02-21T15:21:02;9.90;1.00
21216;DHT22;10765;50.954;5.322;2023-02-21T15:23:30;9.90;1.00
21216;DHT22;10765;50.954;5.322;2023-02-21T15:26:13;9.90;86.10
21216;DHT22;10765;50.954;5.322;2023-02-21T15:28:42;10.00;99.90
21216;DHT22;10765;50.954;5.322;2023-02-21T15:31:11;10.00;1.00
21216;DHT22;10765;50.954;5.322;2023-02-21T15:33:39;10.10;1.00
21216;DHT22;10765;50.954;5.322;2023-02-21T15:36:13;10.10;1.00
21216;DHT22;10765;50.954;5.322;2023-02-21T15:38:44;10.10;1.00
21216;DHT22;10765;50.954;5.322;2023-02-21T15:41:26;10.10;1.00
21216;DHT22;10765;50.954;5.322;2023-02-21T15:43:56;9.90;1.00
21216;DHT22;10765;50.954;5.322;2023-02-21T15:46:29;9.80;1.00
21216;DHT22;10765;50.954;5.322;2023-02-21T15:49:00;9.50;74.40
21216;DHT22;10765;50.954;5.322;2023-02-21T15:51:27;9.50;99.90
21216;DHT22;10765;50.954;5.322;2023-02-21T15:54:08;9.50;99.90
21216;DHT22;10765;50.954;5.322;2023-02-21T15:56:36;9.40;99.90
21216;DHT22;10765;50.954;5.322;2023-02-21T15:59:09;9.40;99.90
21216;DHT22;10765;50.954;5.322;2023-02-21T16:01:36;9.30;1.00
21216;DHT22;10765;50.954;5.322;2023-02-21T16:04:14;9.20;1.00
21216;DHT22;10765;50.954;5.322;2023-02-21T16:06:49;9.20;1.00
21216;DHT22;10765;50.954;5.322;2023-02-21T16:09:24;9.20;1.00
21216;DHT22;10765;50.954;5.322;2023-02-21T16:11:57;9.10;1.00
21216;DHT22;10765;50.954;5.322;2023-02-21T16:14:33;9.10;84.20
21216;DHT22;10765;50.954;5.322;2023-02-21T16:17:15;9.00;64.50
21216;DHT22;10765;50.954;5.322;2023-02-21T16:19:48;8.90;1.00
21216;DHT22;10765;50.954;5.322;2023-02-21T16:22:29;9.10;1.00
21216;DHT22;10765;50.954;5.322;2023-02-21T16:25:12;9.10;99.90
21216;DHT22;10765;50.954;5.322;2023-02-21T16:27:46;9.20;99.90
21216;DHT22;10765;50.954;5.322;2023-02-21T16:30:15;9.10;19.70
21216;DHT22;10765;50.954;5.322;2023-02-21T16:32:44;8.90;79.90
21216;DHT22;10765;50.954;5.322;2023-02-21T16:35:17;8.90;1.00
21216;DHT22;10765;50.954;5.322;2023-02-21T16:37:46;9.00;99.90
21216;DHT22;10765;50.954;5.322;2023-02-21T16:40:15;9.10;99.90
21216;DHT22;10765;50.954;5.322;2023-02-21T16:42:48;9.30;99.90
21216;DHT22;10765;50.954;5.322;2023-02-21T16:45:15;9.40;1.00
21216;DHT22;10765;50.954;5.322;2023-02-21T16:47:42;9.40;1.00